createdAt,value
2018-04-20T00:02:21.562Z,52.93
2018-04-20T00:04:49.929Z,52.91
2018-04-20T00:07:18.296Z,52.94
2018-04-20T00:09:46.748Z,53.84
2018-04-20T00:12:15.273Z,53.72
2018-04-20T00:14:43.681Z,54.13
2018-04-20T00:17:12.050Z,55.28
2018-04-20T00:19:40.408Z,55.70
2018-04-20T00:22:08.824Z,54.54
2018-04-20T00:24:37.290Z,54.54
2018-04-20T00:27:05.720Z,54.13
2018-04-20T00:29:34.117Z,54.43
2018-04-20T00:32:02.514Z,54.54
2018-04-20T00:34:30.888Z,54.43
2018-04-20T00:36:59.363Z,54.47
2018-04-20T00:39:27.717Z,53.85
2018-04-20T00:41:56.113Z,53.92
2018-04-20T00:44:24.494Z,54.02
2018-04-20T00:46:52.883Z,55.00
2018-04-20T00:49:21.260Z,54.04
2018-04-20T00:51:49.691Z,52.82
2018-04-20T00:54:24.906Z,52.17
2018-04-20T00:56:53.422Z,52.00
2018-04-20T00:59:21.806Z,51.09
2018-04-20T01:01:50.178Z,51.27
2018-04-20T01:04:18.582Z,51.62
2018-04-20T01:06:46.969Z,51.89
2018-04-20T01:09:15.325Z,50.78
2018-04-20T01:11:43.727Z,51.35
2018-04-20T01:14:12.114Z,52.02
2018-04-20T01:16:40.565Z,50.60
2018-04-20T01:19:08.933Z,51.58
2018-04-20T01:21:37.311Z,50.99
2018-04-20T01:24:05.710Z,51.09
2018-04-20T01:26:34.105Z,50.94
2018-04-20T01:29:02.569Z,51.42
2018-04-20T01:31:31.001Z,50.79
2018-04-20T01:33:59.447Z,51.82
2018-04-20T01:36:27.790Z,51.42
2018-04-20T01:38:56.163Z,51.62
2018-04-20T01:41:24.617Z,51.01
2018-04-20T01:43:53.000Z,50.37
2018-04-20T01:46:21.398Z,50.56
2018-04-20T01:48:49.720Z,50.69
2018-04-20T01:51:18.118Z,50.32
2018-04-20T01:53:46.533Z,49.99
2018-04-20T01:56:14.927Z,50.12
2018-04-20T01:58:43.373Z,49.49
2018-04-20T02:01:11.774Z,49.14
2018-04-20T02:03:40.129Z,50.00
2018-04-20T02:06:08.513Z,49.66
2018-04-20T02:08:36.877Z,49.45
2018-04-20T02:11:05.287Z,49.06
2018-04-20T02:13:33.651Z,48.66
2018-04-20T02:16:02.100Z,50.25
2018-04-20T02:18:30.481Z,48.80
2018-04-20T02:20:58.886Z,49.03
2018-04-20T02:23:27.301Z,47.98
2018-04-20T02:25:55.689Z,49.04
2018-04-20T02:28:24.092Z,48.19
2018-04-20T02:30:52.508Z,47.93
2018-04-20T02:33:20.882Z,48.51
2018-04-20T02:35:49.281Z,47.49
2018-04-20T02:38:17.734Z,47.53
2018-04-20T02:40:46.139Z,48.76
2018-04-20T02:43:14.572Z,48.02
2018-04-20T02:45:42.983Z,49.11
2018-04-20T02:48:11.470Z,50.73
2018-04-20T02:50:39.878Z,49.01
2018-04-20T02:53:08.340Z,50.00
2018-04-20T02:55:36.801Z,49.06
2018-04-20T02:58:05.150Z,49.92
2018-04-20T03:00:33.609Z,49.92
2018-04-20T03:03:02.006Z,50.28
2018-04-20T03:05:30.468Z,49.61
2018-04-20T03:07:58.862Z,49.39
2018-04-20T03:10:27.368Z,49.65
2018-04-20T03:12:55.770Z,50.51
2018-04-20T03:15:24.168Z,50.04
2018-04-20T03:17:52.590Z,49.83
2018-04-20T03:20:20.997Z,49.76
2018-04-20T03:22:49.404Z,50.39
2018-04-20T03:25:17.774Z,49.33
2018-04-20T03:27:46.202Z,50.14
2018-04-20T03:30:14.674Z,49.45
2018-04-20T03:32:43.042Z,49.42
2018-04-20T03:35:11.427Z,49.39
2018-04-20T03:37:39.790Z,50.46
2018-04-20T03:40:08.205Z,48.82
2018-04-20T03:42:36.574Z,49.75
2018-04-20T03:45:04.971Z,49.12
2018-04-20T03:47:33.345Z,49.51
2018-04-20T03:50:01.787Z,49.29
2018-04-20T03:52:30.133Z,49.67
2018-04-20T03:54:58.501Z,50.16
2018-04-20T03:57:26.945Z,49.05
2018-04-20T03:59:55.345Z,49.33
2018-04-20T04:02:23.707Z,49.94
2018-04-20T04:04:52.120Z,48.85
2018-04-20T04:07:20.494Z,49.74
2018-04-20T04:09:48.890Z,49.99
2018-04-20T04:12:17.356Z,49.88
2018-04-20T04:14:45.741Z,49.33
2018-04-20T04:17:25.799Z,48.83
2018-04-20T04:23:07.972Z,49.57
2018-04-20T04:25:47.969Z,49.19
2018-04-20T04:28:26.348Z,50.08
2018-04-20T04:30:54.741Z,49.99
2018-04-20T04:33:23.175Z,49.39
2018-04-20T04:35:51.572Z,49.38
2018-04-20T04:38:19.949Z,49.08
2018-04-20T04:40:48.315Z,49.32
2018-04-20T04:43:16.670Z,48.23
2018-04-20T04:45:45.060Z,49.06
2018-04-20T04:48:13.421Z,48.39
2018-04-20T04:50:41.838Z,48.34
2018-04-20T04:53:10.219Z,48.15
2018-04-20T04:55:38.641Z,48.87
2018-04-20T04:58:07.014Z,48.48
2018-04-20T05:00:35.398Z,49.13
2018-04-20T05:03:03.784Z,48.34
2018-04-20T05:05:32.195Z,48.99
2018-04-20T05:08:00.554Z,48.17
2018-04-20T05:10:28.926Z,48.42
2018-04-20T05:12:57.345Z,48.67
2018-04-20T05:15:25.704Z,47.67
2018-04-20T05:17:54.060Z,48.45
2018-04-20T05:20:22.538Z,48.50
2018-04-20T05:22:50.943Z,48.47
2018-04-20T05:25:19.320Z,47.82
2018-04-20T05:27:47.735Z,47.92
2018-04-20T05:30:16.236Z,47.40
2018-04-20T05:32:44.715Z,47.62
2018-04-20T05:35:13.090Z,47.66
2018-04-20T05:37:41.569Z,47.32
2018-04-20T05:40:09.984Z,46.31
2018-04-20T05:42:38.446Z,46.63
2018-04-20T05:45:11.201Z,46.56
2018-04-20T05:47:40.577Z,46.50
2018-04-20T05:50:09.033Z,45.89
2018-04-20T05:52:37.539Z,45.17
2018-04-20T05:55:05.941Z,45.58
2018-04-20T05:57:34.402Z,45.08
2018-04-20T06:00:03.729Z,44.66
2018-04-20T06:02:32.163Z,44.60
2018-04-20T06:05:00.646Z,44.31
2018-04-20T06:07:29.046Z,43.50
2018-04-20T06:09:57.500Z,42.54
2018-04-20T06:12:25.914Z,39.19
2018-04-20T06:15:03.409Z,35.19
2018-04-20T06:17:31.861Z,32.50
2018-04-20T06:20:00.306Z,30.65
2018-04-20T06:22:28.759Z,28.84
2018-04-20T06:24:57.164Z,26.28
2018-04-20T06:27:25.754Z,25.70
2018-04-20T06:29:54.192Z,24.88
2018-04-20T06:32:22.666Z,23.70
2018-04-20T06:34:54.129Z,23.36
2018-04-20T06:37:22.522Z,23.51
2018-04-20T06:39:50.984Z,22.70
2018-04-20T06:42:19.387Z,21.46
2018-04-20T06:44:47.751Z,19.87
2018-04-20T06:47:16.123Z,21.40
2018-04-20T06:49:44.531Z,19.91
2018-04-20T06:52:12.965Z,20.38
2018-04-20T06:54:41.331Z,20.30
2018-04-20T06:57:10.260Z,20.62
2018-04-20T06:59:38.615Z,19.61
2018-04-20T07:02:06.976Z,19.31
2018-04-20T07:04:35.409Z,18.65
2018-04-20T07:07:03.771Z,18.64
2018-04-20T07:09:32.135Z,18.81
2018-04-20T07:12:00.529Z,19.01
2018-04-20T07:14:28.884Z,18.45
2018-04-20T07:16:57.336Z,18.74
2018-04-20T07:19:25.686Z,18.36
2018-04-20T07:21:54.041Z,17.81
2018-04-20T07:24:22.401Z,17.82
2018-04-20T07:26:50.783Z,18.23
2018-04-20T07:29:19.187Z,18.57
2018-04-20T07:31:47.598Z,18.59
2018-04-20T07:34:16.096Z,18.42
2018-04-20T07:36:44.487Z,18.37
2018-04-20T07:39:12.878Z,18.61
2018-04-20T07:41:41.280Z,18.08
2018-04-20T07:44:09.765Z,18.26
2018-04-20T07:46:38.194Z,18.12
2018-04-20T07:49:06.573Z,17.87
2018-04-20T07:51:34.961Z,18.65
2018-04-20T07:54:03.339Z,18.26
2018-04-20T07:56:31.805Z,18.62
2018-04-20T07:59:00.388Z,18.34
2018-04-20T08:01:28.835Z,19.44
2018-04-20T08:03:57.612Z,19.72
2018-04-20T08:06:26.632Z,19.30
2018-04-20T08:08:55.027Z,18.98
2018-04-20T08:11:23.493Z,18.26
2018-04-20T08:13:51.924Z,17.62
2018-04-20T08:16:20.366Z,17.06
2018-04-20T08:18:48.773Z,17.50
2018-04-20T08:21:17.147Z,17.08
2018-04-20T08:23:45.590Z,17.73
2018-04-20T08:26:13.972Z,18.66
2018-04-20T08:28:42.678Z,17.44
2018-04-20T08:31:11.129Z,17.48
2018-04-20T08:33:39.787Z,17.26
2018-04-20T08:36:08.737Z,16.65
2018-04-20T08:38:39.249Z,17.42
2018-04-20T08:41:08.154Z,16.52
2018-04-20T08:43:40.617Z,15.89
2018-04-20T08:46:11.605Z,16.85
2018-04-20T08:48:41.473Z,16.46
2018-04-20T08:51:11.436Z,17.21
2018-04-20T08:53:42.938Z,17.24
2018-04-20T08:56:22.751Z,17.61
2018-04-20T08:58:54.827Z,17.26
2018-04-20T09:01:29.445Z,16.72
2018-04-20T09:04:08.033Z,15.62
2018-04-20T09:06:42.915Z,15.27
2018-04-20T09:09:17.650Z,15.55
2018-04-20T09:11:48.530Z,15.46
2018-04-20T09:14:16.963Z,16.01
2018-04-20T09:19:19.910Z,14.22
2018-04-20T09:21:48.449Z,13.69
2018-04-20T09:24:16.793Z,14.89
2018-04-20T09:26:45.154Z,14.35
2018-04-20T09:29:13.734Z,14.41
2018-04-20T09:31:42.112Z,14.01
2018-04-20T09:34:10.469Z,13.85
2018-04-20T09:36:38.915Z,14.49
2018-04-20T09:39:07.298Z,13.42
2018-04-20T09:41:35.720Z,13.82
2018-04-20T09:44:04.113Z,13.44
2018-04-20T09:46:32.587Z,13.36
2018-04-20T09:49:00.981Z,14.00
2018-04-20T09:51:29.410Z,13.65
2018-04-20T09:53:57.782Z,13.32
2018-04-20T09:56:26.165Z,11.83
2018-04-20T09:58:54.553Z,13.34
2018-04-20T10:01:24.907Z,12.65
2018-04-20T10:03:57.121Z,13.58
2018-04-20T10:06:25.514Z,14.43
2018-04-20T10:11:37.230Z,12.87
2018-04-20T10:14:05.683Z,13.07
2018-04-20T10:16:34.096Z,13.66
2018-04-20T10:19:02.485Z,13.46
2018-04-20T10:21:30.889Z,13.83
2018-04-20T10:23:59.274Z,13.05
2018-04-20T10:26:27.793Z,12.87
2018-04-20T10:28:56.178Z,11.53
2018-04-20T10:31:24.566Z,11.44
2018-04-20T10:33:53.038Z,11.83
2018-04-20T10:36:21.409Z,9.96
2018-04-20T10:38:49.899Z,9.07
2018-04-20T10:41:18.292Z,9.94
2018-04-20T10:43:46.687Z,10.54
2018-04-20T10:46:15.076Z,10.78
2018-04-20T10:48:43.551Z,11.63
2018-04-20T10:51:11.999Z,11.79
2018-04-20T10:53:40.451Z,12.25
2018-04-20T10:56:08.853Z,11.60
2018-04-20T10:58:37.363Z,11.94
2018-04-20T11:01:05.748Z,11.27
2018-04-20T11:03:34.143Z,11.31
2018-04-20T11:06:02.599Z,12.89
2018-04-20T11:08:31.164Z,11.36
2018-04-20T11:10:59.585Z,12.07
2018-04-20T11:13:28.011Z,11.80
2018-04-20T11:15:56.429Z,11.26
2018-04-20T11:18:24.893Z,11.07
2018-04-20T11:20:53.313Z,11.72
2018-04-20T11:23:21.796Z,11.22
2018-04-20T11:25:50.202Z,10.81
2018-04-20T11:28:18.583Z,10.90
2018-04-20T11:30:46.990Z,11.22
2018-04-20T11:33:15.411Z,11.94
2018-04-20T11:35:43.824Z,11.54
2018-04-20T11:38:12.278Z,11.08
2018-04-20T11:40:40.777Z,11.63
2018-04-20T11:43:09.260Z,12.04
2018-04-20T11:45:37.646Z,12.66
2018-04-20T11:48:06.032Z,12.48
2018-04-20T11:50:34.446Z,11.67
2018-04-20T11:53:03.215Z,12.10
2018-04-20T11:55:31.895Z,11.96
2018-04-20T11:58:00.250Z,12.49
2018-04-20T12:00:28.622Z,13.06
2018-04-20T12:02:56.976Z,14.38
2018-04-20T12:05:25.348Z,15.72
2018-04-20T12:07:53.722Z,15.97
2018-04-20T12:10:22.095Z,15.24
2018-04-20T12:12:50.490Z,15.50
2018-04-20T12:15:18.875Z,15.41
2018-04-20T12:17:47.280Z,15.36
2018-04-20T12:20:15.744Z,15.21
2018-04-20T12:22:44.251Z,15.40
2018-04-20T12:25:12.660Z,15.64
2018-04-20T12:27:41.049Z,15.57
2018-04-20T12:30:09.502Z,16.07
2018-04-20T12:32:38.033Z,16.15
2018-04-20T12:35:06.434Z,15.71
2018-04-20T12:37:34.847Z,17.77
2018-04-20T12:40:03.248Z,17.37
2018-04-20T12:42:31.668Z,18.34
2018-04-20T12:45:00.100Z,18.12
2018-04-20T12:47:28.530Z,17.17
2018-04-20T12:49:56.978Z,16.57
2018-04-20T12:52:25.421Z,16.98
2018-04-20T12:54:53.803Z,16.80
2018-04-20T12:57:22.207Z,17.24
2018-04-20T12:59:50.571Z,17.85
2018-04-20T13:02:18.961Z,17.18
2018-04-20T13:04:47.345Z,18.36
2018-04-20T13:07:15.768Z,17.73
2018-04-20T13:09:44.159Z,17.93
2018-04-20T13:12:12.509Z,18.04
2018-04-20T13:14:40.864Z,17.55
2018-04-20T13:17:09.221Z,17.45
2018-04-20T13:19:37.594Z,17.01
2018-04-20T13:22:05.963Z,17.66
2018-04-20T13:24:34.355Z,16.91
2018-04-20T13:27:02.697Z,18.14
2018-04-20T13:29:31.061Z,17.22
2018-04-20T13:31:59.417Z,17.60
2018-04-20T13:34:27.781Z,17.10
2018-04-20T13:36:56.121Z,18.64
2018-04-20T13:39:24.539Z,18.21
2018-04-20T13:41:52.901Z,18.50
2018-04-20T13:44:21.258Z,18.44
2018-04-20T13:46:49.623Z,18.35
2018-04-20T13:49:18.014Z,18.39
2018-04-20T13:51:46.390Z,17.54
2018-04-20T13:54:14.751Z,18.33
2018-04-20T13:56:43.162Z,19.51
2018-04-20T13:59:11.686Z,19.12
2018-04-20T14:01:40.106Z,18.63
2018-04-20T14:04:08.500Z,19.95
2018-04-20T14:06:36.887Z,19.69
2018-04-20T14:09:06.098Z,19.46
2018-04-20T14:11:34.520Z,19.98
2018-04-20T14:14:02.902Z,20.36
2018-04-20T14:16:31.424Z,20.42
2018-04-20T14:18:59.902Z,20.32
2018-04-20T14:21:28.297Z,21.46
2018-04-20T14:23:56.686Z,22.20
2018-04-20T14:26:25.142Z,22.04
2018-04-20T14:28:53.487Z,22.27
2018-04-20T14:31:21.845Z,20.88
2018-04-20T14:33:50.215Z,22.81
2018-04-20T14:36:18.591Z,20.95
2018-04-20T14:38:46.956Z,20.08
2018-04-20T14:41:15.413Z,19.53
2018-04-20T14:43:43.876Z,19.15
2018-04-20T14:46:12.161Z,18.88
2018-04-20T14:48:40.640Z,18.71
2018-04-20T14:51:09.001Z,19.48
2018-04-20T14:53:37.370Z,19.28
2018-04-20T14:56:05.827Z,18.65
2018-04-20T14:58:34.199Z,19.11
2018-04-20T15:01:02.581Z,19.52
2018-04-20T15:03:30.933Z,19.14
2018-04-20T15:05:59.304Z,19.08
2018-04-20T15:08:27.681Z,19.09
2018-04-20T15:10:56.029Z,19.52
2018-04-20T15:13:24.523Z,19.32
2018-04-20T15:15:52.899Z,19.20
2018-04-20T15:18:21.316Z,19.13
2018-04-20T15:20:49.763Z,19.58
2018-04-20T15:23:18.107Z,18.66
2018-04-20T15:25:46.601Z,18.52
2018-04-20T15:28:14.991Z,18.75
2018-04-20T15:30:43.356Z,18.99
2018-04-20T15:33:11.769Z,19.25
2018-04-20T15:35:40.176Z,19.23
2018-04-20T15:38:08.626Z,18.87
2018-04-20T15:40:37.034Z,19.05
2018-04-20T15:43:05.539Z,18.47
2018-04-20T15:45:33.951Z,19.03
2018-04-20T15:48:02.349Z,18.86
2018-04-20T15:50:30.753Z,21.99
2018-04-20T15:52:59.136Z,23.90
2018-04-20T15:55:27.594Z,24.39
2018-04-20T15:57:56.002Z,24.93
2018-04-20T16:00:24.425Z,24.90
2018-04-20T16:02:52.831Z,24.81
2018-04-20T16:05:21.266Z,25.03
2018-04-20T16:07:49.650Z,26.27
2018-04-20T16:10:18.072Z,25.97
2018-04-20T16:12:46.503Z,26.30
2018-04-20T16:15:14.920Z,25.52
2018-04-20T16:17:43.358Z,25.46
2018-04-20T16:20:11.804Z,26.02
2018-04-20T16:22:40.203Z,26.29
2018-04-20T16:25:08.620Z,25.11
2018-04-20T16:27:37.021Z,26.20
2018-04-20T16:30:05.445Z,25.62
2018-04-20T16:32:33.924Z,25.60
2018-04-20T16:35:02.369Z,26.52
2018-04-20T16:37:30.873Z,26.29
2018-04-20T16:39:59.298Z,26.05
2018-04-20T16:42:27.729Z,25.29
2018-04-20T16:44:56.122Z,26.30
2018-04-20T16:47:24.794Z,26.22
2018-04-20T16:49:53.693Z,26.51
2018-04-20T16:52:22.096Z,26.77
2018-04-20T16:54:50.566Z,26.39
2018-04-20T16:57:18.962Z,26.60
2018-04-20T16:59:47.376Z,27.06
2018-04-20T17:02:15.770Z,27.28
2018-04-20T17:04:44.257Z,27.20
2018-04-20T17:07:12.749Z,27.33
2018-04-20T17:09:41.120Z,27.47
2018-04-20T17:12:09.521Z,27.43
2018-04-20T17:14:37.907Z,27.64
2018-04-20T17:17:06.303Z,27.33
2018-04-20T17:19:34.707Z,27.38
2018-04-20T17:22:03.078Z,27.67
2018-04-20T17:24:31.484Z,27.73
2018-04-20T17:26:59.861Z,28.12
2018-04-20T17:29:28.252Z,27.64
2018-04-20T17:31:56.626Z,28.46
2018-04-20T17:34:25.004Z,27.75
2018-04-20T17:36:53.451Z,27.80
2018-04-20T17:39:21.841Z,27.60
2018-04-20T17:41:50.331Z,27.57
2018-04-20T17:44:18.698Z,27.62
2018-04-20T17:46:47.116Z,27.92
2018-04-20T17:49:15.601Z,27.97
2018-04-20T17:51:44.059Z,29.95
2018-04-20T17:54:12.460Z,31.34
2018-04-20T17:56:40.858Z,32.00
2018-04-20T17:59:09.244Z,33.05
2018-04-20T18:01:37.678Z,33.14
2018-04-20T18:04:06.123Z,33.83
2018-04-20T18:06:34.505Z,34.20
2018-04-20T18:09:02.893Z,34.15
2018-04-20T18:11:31.369Z,34.36
2018-04-20T18:13:59.739Z,35.24
2018-04-20T18:16:28.218Z,36.35
2018-04-20T18:18:56.578Z,36.82
2018-04-20T18:21:24.969Z,36.89
2018-04-20T18:23:53.405Z,36.44
2018-04-20T18:26:21.767Z,37.85
2018-04-20T18:28:50.154Z,37.94
2018-04-20T18:31:18.513Z,38.07
2018-04-20T18:33:46.904Z,37.91
2018-04-20T18:36:15.354Z,38.32
2018-04-20T18:38:43.733Z,38.86
2018-04-20T18:41:12.133Z,39.57
2018-04-20T18:43:40.494Z,39.85
2018-04-20T18:46:08.878Z,39.52
2018-04-20T18:48:37.333Z,39.51
2018-04-20T18:51:05.738Z,40.26
2018-04-20T18:53:34.117Z,40.13
2018-04-20T18:56:02.529Z,40.00
2018-04-20T18:58:30.951Z,40.02
2018-04-20T19:00:59.352Z,40.75
2018-04-20T19:03:27.785Z,40.25
2018-04-20T19:05:56.277Z,39.76
2018-04-20T19:08:24.750Z,41.63
2018-04-20T19:10:53.182Z,41.21
2018-04-20T19:13:21.617Z,41.33
2018-04-20T19:15:50.026Z,41.13
2018-04-20T19:18:18.538Z,41.79
2018-04-20T19:20:46.997Z,43.06
2018-04-20T19:23:15.384Z,42.11
2018-04-20T19:25:43.793Z,42.24
2018-04-20T19:28:12.205Z,43.27
2018-04-20T19:30:40.691Z,43.44
2018-04-20T19:33:09.081Z,43.41
2018-04-20T19:35:37.482Z,43.51
2018-04-20T19:38:05.882Z,43.96
2018-04-20T19:40:34.289Z,43.89
2018-04-20T19:43:02.766Z,44.44
2018-04-20T19:45:31.261Z,43.87
2018-04-20T19:47:59.678Z,43.83
2018-04-20T19:50:28.091Z,44.29
2018-04-20T19:52:56.563Z,45.21
2018-04-20T19:55:24.955Z,45.70
2018-04-20T19:57:53.348Z,46.31
2018-04-20T20:00:21.826Z,46.47
2018-04-20T20:02:50.327Z,46.57
2018-04-20T20:05:18.729Z,46.61
2018-04-20T20:07:47.125Z,46.98
2018-04-20T20:10:15.550Z,46.42
2018-04-20T20:12:44.017Z,47.52
2018-04-20T20:15:12.419Z,46.57
2018-04-20T20:17:40.823Z,46.99
2018-04-20T20:20:09.241Z,47.80
2018-04-20T20:22:37.656Z,47.92
2018-04-20T20:25:06.150Z,47.28
2018-04-20T20:27:34.560Z,47.54
2018-04-20T20:30:02.976Z,48.20
2018-04-20T20:32:31.388Z,47.37
2018-04-20T20:34:59.871Z,47.98
2018-04-20T20:37:28.344Z,47.87
2018-04-20T20:39:56.755Z,47.33
2018-04-20T20:42:25.173Z,48.36
2018-04-20T20:44:53.663Z,47.60
2018-04-20T20:47:22.106Z,48.68
2018-04-20T20:49:50.555Z,49.29
2018-04-20T20:52:18.948Z,49.27
2018-04-20T20:54:47.357Z,48.41
2018-04-20T20:57:15.761Z,49.70
2018-04-20T20:59:44.268Z,50.02
2018-04-20T21:02:12.706Z,49.66
2018-04-20T21:04:41.096Z,50.20
2018-04-20T21:07:09.624Z,50.75
2018-04-20T21:09:38.173Z,49.64
2018-04-20T21:12:06.532Z,50.37
2018-04-20T21:14:34.919Z,49.66
2018-04-20T21:17:03.387Z,50.67
2018-04-20T21:19:31.775Z,50.90
2018-04-20T21:22:00.169Z,50.48
2018-04-20T21:24:28.537Z,50.06
2018-04-20T21:26:56.940Z,49.68
2018-04-20T21:29:25.316Z,49.84
2018-04-20T21:31:53.707Z,50.34
2018-04-20T21:34:22.078Z,51.87
2018-04-20T21:36:50.468Z,51.98
2018-04-20T21:39:18.884Z,51.24
2018-04-20T21:41:47.283Z,51.34
2018-04-20T21:44:15.658Z,51.96
2018-04-20T21:46:44.020Z,51.66
2018-04-20T21:49:12.391Z,52.53
2018-04-20T21:51:40.745Z,52.42
2018-04-20T21:54:09.135Z,52.78
2018-04-20T21:56:37.575Z,51.52
2018-04-20T21:59:05.954Z,52.54
2018-04-20T22:01:34.331Z,52.79
2018-04-20T22:04:02.759Z,52.55
2018-04-20T22:06:31.155Z,52.49
2018-04-20T22:08:59.518Z,53.27
2018-04-20T22:11:27.922Z,53.04
2018-04-20T22:13:56.338Z,52.74
2018-04-20T22:16:24.697Z,52.18
2018-04-20T22:18:53.096Z,53.14
2018-04-20T22:21:21.520Z,52.45
2018-04-20T22:23:50.044Z,52.62
2018-04-20T22:26:18.457Z,53.21
2018-04-20T22:28:46.898Z,52.83
2018-04-20T22:31:15.574Z,52.79
2018-04-20T22:33:44.170Z,52.19
2018-04-20T22:36:12.583Z,53.26
2018-04-20T22:38:40.970Z,53.52
2018-04-20T22:41:09.356Z,52.68
2018-04-20T22:43:37.810Z,52.93
2018-04-20T22:46:06.317Z,53.39
2018-04-20T22:48:34.941Z,53.52
2018-04-20T22:51:03.374Z,52.64
2018-04-20T22:53:31.760Z,49.91
2018-04-20T22:56:00.204Z,49.53
2018-04-20T22:58:28.650Z,49.20
2018-04-20T23:00:57.061Z,49.55
2018-04-20T23:03:25.500Z,49.61
2018-04-20T23:05:53.934Z,50.88
2018-04-20T23:08:22.336Z,51.42
2018-04-20T23:10:50.743Z,51.32
2018-04-20T23:13:19.146Z,52.05
2018-04-20T23:15:47.528Z,51.49
2018-04-20T23:18:15.984Z,51.38
2018-04-20T23:20:44.496Z,50.98
2018-04-20T23:23:12.900Z,50.40
2018-04-20T23:25:41.338Z,50.06
2018-04-20T23:28:09.739Z,49.85
2018-04-20T23:30:38.203Z,49.94
2018-04-20T23:33:06.606Z,50.47
2018-04-20T23:35:34.995Z,50.57
2018-04-20T23:38:03.398Z,51.32
2018-04-20T23:40:31.807Z,52.03
2018-04-20T23:43:00.256Z,53.11
2018-04-20T23:45:28.663Z,53.77
2018-04-20T23:47:57.026Z,54.93
2018-04-20T23:50:25.503Z,55.31
2018-04-20T23:52:53.860Z,55.68
2018-04-20T23:55:22.226Z,54.82
2018-04-20T23:57:50.589Z,54.25
